Time;durP1;ratioP1;P1;durP2;ratioP2;P2;SDS_P1;SDS_P2;PMS_P1;PMS_P2;Temp;Humidity;BMP_temperature;BMP_pressure;BME280_temperature;BME280_humidity;BME280_pressure;Samples;Min_cycle;Max_cycle;Signal;HPM_P1;HPM_P2
2024/02/22 00:04:32;;;;;;;0.55;0.55;;;21.60;44.80;;;;;;10352311;28;20565;-56
2024/02/22 00:09:35;;;;;;;0.50;0.50;;;21.40;45.00;;;;;;10358100;28;20042;-54
2024/02/22 00:14:37;;;;;;;1.42;0.60;;;21.40;45.60;;;;;;10363300;28;20050;-58
2024/02/22 00:19:39;;;;;;;0.55;0.50;;;21.50;44.90;;;;;;10358283;28;20042;-59
2024/02/22 00:24:42;;;;;;;0.73;0.50;;;21.40;45.10;;;;;;10354835;28;20052;-55
2024/02/22 00:29:43;;;;;;;0.40;0.40;;;21.30;45.20;;;;;;10364422;28;20050;-55
2024/02/22 00:34:45;;;;;;;0.40;0.40;;;21.40;45.00;;;;;;10362903;28;20038;-55
2024/02/22 00:39:49;;;;;;;0.47;0.47;;;21.30;45.20;;;;;;10359786;28;20049;-58
2024/02/22 00:44:50;;;;;;;0.52;0.50;;;21.20;45.10;;;;;;10353695;28;20520;-56
2024/02/22 00:49:52;;;;;;;0.70;0.40;;;21.20;45.10;;;;;;10358981;28;20417;-55
2024/02/22 00:54:55;;;;;;;0.68;0.60;;;21.20;45.10;;;;;;10358442;28;20693;-55
2024/02/22 00:59:57;;;;;;;0.40;0.40;;;21.10;45.30;;;;;;10353634;28;20758;-59
2024/02/22 01:04:58;;;;;;;0.68;0.52;;;21.10;45.20;;;;;;10358152;28;20122;-55
2024/02/22 01:10:01;;;;;;;0.50;0.50;;;21.10;45.20;;;;;;10355865;28;20124;-55
2024/02/22 01:15:03;;;;;;;0.50;0.50;;;21.00;45.30;;;;;;10350585;28;20049;-54
2024/02/22 01:20:05;;;;;;;0.50;0.50;;;21.00;45.30;;;;;;10348257;28;20054;-52
2024/02/22 01:25:10;;;;;;;0.50;0.50;;;21.10;45.10;;;;;;10354125;28;20129;-54
2024/02/22 01:30:12;;;;;;;0.50;0.50;;;21.10;45.10;;;;;;10357230;28;20522;-58
2024/02/22 01:35:13;;;;;;;0.40;0.40;;;20.90;45.40;;;;;;10355262;28;20480;-54
2024/02/22 01:40:17;;;;;;;0.60;0.50;;;21.00;45.20;;;;;;10364006;28;20125;-55
2024/02/22 01:45:18;;;;;;;0.50;0.50;;;21.00;45.10;;;;;;10357596;28;20045;-59
2024/02/22 01:50:20;;;;;;;0.43;0.43;;;20.90;45.40;;;;;;10359020;28;20481;-54
2024/02/22 01:55:23;;;;;;;0.85;0.60;;;20.90;45.30;;;;;;10352939;28;20042;-53
2024/02/22 02:00:27;;;;;;;1.05;0.50;;;20.80;45.30;;;;;;10351836;28;20046;-56
2024/02/22 02:05:28;;;;;;;0.47;0.47;;;20.80;45.40;;;;;;10355206;28;20069;-59
2024/02/22 02:10:31;;;;;;;0.55;0.55;;;20.80;45.30;;;;;;10357694;28;20054;-58
2024/02/22 02:15:33;;;;;;;0.60;0.50;;;20.90;45.00;;;;;;10353840;28;20056;-59
2024/02/22 02:20:37;;;;;;;0.50;0.50;;;20.90;45.30;;;;;;10353842;28;20519;-58
2024/02/22 02:25:40;;;;;;;0.45;0.45;;;20.80;45.20;;;;;;10353296;28;20042;-58
2024/02/22 02:30:42;;;;;;;0.65;0.60;;;20.80;45.20;;;;;;10346831;28;20046;-59
2024/02/22 02:35:43;;;;;;;0.43;0.43;;;20.70;45.50;;;;;;10345190;28;20534;-58
2024/02/22 02:40:46;;;;;;;0.70;0.65;;;20.70;45.50;;;;;;10347356;28;20068;-60
2024/02/22 02:45:48;;;;;;;0.50;0.40;;;20.60;45.50;;;;;;10352804;28;20049;-60
2024/02/22 02:50:49;;;;;;;0.50;0.50;;;20.60;45.50;;;;;;10352694;28;20141;-59
2024/02/22 02:55:52;;;;;;;0.47;0.43;;;20.50;45.60;;;;;;10360645;28;20050;-59
2024/02/22 03:00:54;;;;;;;0.32;0.32;;;20.60;45.40;;;;;;10354942;28;20050;-58
2024/02/22 03:05:56;;;;;;;0.40;0.40;;;20.70;45.30;;;;;;10352813;28;20052;-59
2024/02/22 03:10:58;;;;;;;0.50;0.50;;;20.60;45.60;;;;;;10350420;28;20061;-59
2024/02/22 03:16:00;;;;;;;0.50;0.50;;;20.50;45.50;;;;;;10344856;28;20046;-59
2024/02/22 03:21:02;;;;;;;0.30;0.30;;;20.50;45.70;;;;;;10351562;28;20100;-59
2024/02/22 03:26:06;;;;;;;0.40;0.40;;;20.50;45.60;;;;;;10350712;28;20050;-59
2024/02/22 03:31:08;;;;;;;0.50;0.50;;;20.40;46.10;;;;;;10351228;28;20116;-59
2024/02/22 03:36:11;;;;;;;0.50;0.50;;;20.30;45.70;;;;;;10351597;28;20050;-58
2024/02/22 03:41:24;;;;;;;0.30;0.30;;;20.50;45.40;;;;;;10350933;28;20053;-59
2024/02/22 03:46:25;;;;;;;0.52;0.50;;;20.50;45.50;;;;;;10347184;28;20034;-59
2024/02/22 03:51:27;;;;;;;0.50;0.45;;;20.50;45.40;;;;;;10344870;28;20526;-59
2024/02/22 03:56:31;;;;;;;0.40;0.40;;;20.40;45.50;;;;;;10341453;28;20054;-58
2024/02/22 04:01:33;;;;;;;0.50;0.43;;;20.30;45.60;;;;;;10352830;28;20046;-59
2024/02/22 04:06:35;;;;;;;0.45;0.40;;;20.50;45.20;;;;;;10355901;28;20053;-60
2024/02/22 04:11:38;;;;;;;0.40;0.30;;;20.10;46.40;;;;;;10360851;28;20156;-61
2024/02/22 04:16:41;;;;;;;0.30;0.30;;;19.90;47.30;;;;;;10360803;28;20068;-58
2024/02/22 04:21:42;;;;;;;0.40;0.40;;;20.40;46.40;;;;;;10355290;28;20052;-58
2024/02/22 04:26:50;;;;;;;0.45;0.40;;;20.70;46.00;;;;;;10355740;28;20056;-58
2024/02/22 04:31:52;;;;;;;0.57;0.40;;;20.80;45.90;;;;;;10354396;28;20051;-58
2024/02/22 04:36:55;;;;;;;0.40;0.40;;;21.00;45.70;;;;;;10347702;28;20062;-58
2024/02/22 04:41:58;;;;;;;0.30;0.30;;;21.00;45.30;;;;;;10360261;28;20405;-58
2024/02/22 04:46:59;;;;;;;0.40;0.40;;;21.00;45.60;;;;;;10355358;28;20049;-60
2024/02/22 04:52:03;;;;;;;0.40;0.40;;;21.00;45.60;;;;;;10356134;28;20050;-57
2024/02/22 04:57:06;;;;;;;0.30;0.30;;;21.00;45.50;;;;;;10352940;28;20141;-58
2024/02/22 05:02:08;;;;;;;0.50;0.40;;;21.10;45.30;;;;;;10356692;28;20046;-58
2024/02/22 05:07:09;;;;;;;0.40;0.40;;;21.20;45.20;;;;;;10351075;28;20451;-60
2024/02/22 05:12:12;;;;;;;0.40;0.40;;;21.30;45.00;;;;;;10348834;28;20053;-57
2024/02/22 05:17:14;;;;;;;0.40;0.40;;;21.20;45.20;;;;;;10359196;28;20042;-56
2024/02/22 05:22:15;;;;;;;0.30;0.30;;;21.30;45.30;;;;;;10355758;28;20050;-58
2024/02/22 05:27:18;;;;;;;0.55;0.50;;;21.50;45.10;;;;;;10358034;28;20057;-54
2024/02/22 05:32:20;;;;;;;0.30;0.30;;;21.30;45.30;;;;;;10354115;28;20044;-58
2024/02/22 05:37:22;;;;;;;0.40;0.40;;;21.40;45.40;;;;;;10352863;28;20038;-54
2024/02/22 05:42:25;;;;;;;0.40;0.40;;;21.50;45.30;;;;;;10348835;28;20046;-56
2024/02/22 05:47:26;;;;;;;0.40;0.40;;;21.40;45.60;;;;;;10343109;28;20038;-55
2024/02/22 05:52:29;;;;;;;0.40;0.40;;;21.50;45.50;;;;;;10344814;28;20059;-54
2024/02/22 05:57:31;;;;;;;0.30;0.30;;;21.50;45.60;;;;;;10351603;28;20042;-53
2024/02/22 06:02:33;;;;;;;0.40;0.40;;;21.50;45.50;;;;;;10350439;28;20056;-55
2024/02/22 06:07:35;;;;;;;0.40;0.40;;;21.60;45.50;;;;;;10348937;28;20145;-54
2024/02/22 06:12:38;;;;;;;0.30;0.30;;;21.60;45.30;;;;;;10350884;28;20136;-54
2024/02/22 06:17:39;;;;;;;0.45;0.30;;;21.60;45.50;;;;;;10350785;28;20074;-53
2024/02/22 06:22:41;;;;;;;0.40;0.40;;;21.70;45.30;;;;;;10348579;28;20049;-59
2024/02/22 06:27:44;;;;;;;0.30;0.30;;;21.80;45.10;;;;;;10348586;28;20046;-59
2024/02/22 06:32:46;;;;;;;0.50;0.35;;;21.80;45.10;;;;;;10351386;28;20050;-57
2024/02/22 06:37:48;;;;;;;0.35;0.30;;;21.80;45.10;;;;;;10350095;28;20524;-60
2024/02/22 06:42:51;;;;;;;0.40;0.40;;;21.80;45.20;;;;;;10353518;28;20065;-58
2024/02/22 06:47:53;;;;;;;0.30;0.30;;;21.70;45.30;;;;;;10351889;28;20051;-57
2024/02/22 06:52:54;;;;;;;0.30;0.30;;;21.60;45.50;;;;;;10353041;28;20054;-57
2024/02/22 06:57:57;;;;;;;0.30;0.30;;;21.60;45.40;;;;;;10352519;28;20096;-57
2024/02/22 07:02:59;;;;;;;0.32;0.32;;;21.60;45.50;;;;;;10339449;28;20065;-58
2024/02/22 07:08:00;;;;;;;0.30;0.30;;;21.60;45.50;;;;;;10340990;28;20081;-60
2024/02/22 07:13:04;;;;;;;0.30;0.30;;;21.60;45.60;;;;;;10348614;28;20058;-56
2024/02/22 07:18:06;;;;;;;0.30;0.30;;;21.60;45.50;;;;;;10349029;28;20512;-53
2024/02/22 07:23:08;;;;;;;0.43;0.32;;;21.60;45.60;;;;;;10349774;28;20513;-57
2024/02/22 07:28:13;;;;;;;0.30;0.30;;;21.50;45.70;;;;;;10342235;28;20446;-56
2024/02/22 07:33:14;;;;;;;0.30;0.30;;;21.70;45.50;;;;;;10352207;28;20097;-57
2024/02/22 07:38:16;;;;;;;0.30;0.30;;;21.70;45.30;;;;;;10350062;28;20141;-58
2024/02/22 07:43:19;;;;;;;0.32;0.30;;;21.60;45.50;;;;;;10358757;28;20061;-57
2024/02/22 07:48:20;;;;;;;0.30;0.30;;;21.60;45.60;;;;;;10356145;28;20050;-58
2024/02/22 07:53:22;;;;;;;0.30;0.30;;;21.50;45.80;;;;;;10360845;28;20157;-61
2024/02/22 07:58:25;;;;;;;0.47;0.47;;;21.40;45.90;;;;;;10363288;28;20077;-56
2024/02/22 08:03:27;;;;;;;0.40;0.30;;;21.50;45.70;;;;;;10357826;28;20053;-59
2024/02/22 08:08:29;;;;;;;0.30;0.30;;;21.20;46.10;;;;;;10356929;28;20056;-56
2024/02/22 08:13:32;;;;;;;0.30;0.30;;;21.40;46.00;;;;;;10353355;28;20101;-57
2024/02/22 08:18:34;;;;;;;0.30;0.30;;;21.40;45.70;;;;;;10345462;28;20508;-57
2024/02/22 08:23:35;;;;;;;0.30;0.30;;;21.20;46.10;;;;;;10355553;28;20060;-58
2024/02/22 08:28:38;;;;;;;0.35;0.35;;;21.20;46.10;;;;;;10355752;28;20556;-56
2024/02/22 08:33:41;;;;;;;0.20;0.20;;;21.20;46.20;;;;;;10362340;28;20712;-58
2024/02/22 08:38:42;;;;;;;0.30;0.30;;;21.30;46.30;;;;;;10356300;28;20058;-55
2024/02/22 08:43:45;;;;;;;0.40;0.40;;;21.20;46.40;;;;;;10352877;28;20050;-51
2024/02/22 08:48:47;;;;;;;0.30;0.30;;;21.20;46.40;;;;;;10357904;28;20047;-57
2024/02/22 08:53:48;;;;;;;0.30;0.30;;;21.30;46.20;;;;;;10358466;28;20046;-56
2024/02/22 08:58:51;;;;;;;0.20;0.20;;;21.40;46.20;;;;;;10360689;28;20490;-55
2024/02/22 09:03:53;;;;;;;0.30;0.30;;;21.30;46.20;;;;;;10359331;28;20129;-52
2024/02/22 09:08:55;;;;;;;0.30;0.30;;;21.40;46.20;;;;;;10361559;28;20133;-54
2024/02/22 09:13:58;;;;;;;0.40;0.40;;;21.40;46.20;;;;;;10360613;28;20051;-54
2024/02/22 09:18:59;;;;;;;0.30;0.30;;;21.30;46.20;;;;;;10357271;28;20053;-51
2024/02/22 09:24:01;;;;;;;0.30;0.30;;;21.40;46.20;;;;;;10353239;28;20042;-56
2024/02/22 09:29:04;;;;;;;0.30;0.30;;;21.40;46.10;;;;;;10349699;28;20045;-55
2024/02/22 09:34:06;;;;;;;0.30;0.30;;;21.50;46.10;;;;;;10344742;28;20502;-56
2024/02/22 09:39:08;;;;;;;0.30;0.30;;;21.30;46.30;;;;;;10345706;28;20129;-56
2024/02/22 09:44:11;;;;;;;0.30;0.30;;;21.40;46.20;;;;;;10352114;28;20049;-54
2024/02/22 09:49:12;;;;;;;0.30;0.30;;;21.30;46.20;;;;;;10355210;28;20042;-55
2024/02/22 09:54:14;;;;;;;0.28;0.28;;;21.20;46.60;;;;;;10355212;28;20042;-58
2024/02/22 09:59:18;;;;;;;0.20;0.20;;;21.20;46.60;;;;;;10351338;28;20423;-53
2024/02/22 10:04:21;;;;;;;0.30;0.30;;;21.00;46.80;;;;;;10355618;28;20047;-55
2024/02/22 10:09:23;;;;;;;0.30;0.30;;;21.00;46.80;;;;;;10353786;28;20068;-58
2024/02/22 10:14:25;;;;;;;0.30;0.30;;;20.90;47.10;;;;;;10358471;28;20042;-51
2024/02/22 10:19:27;;;;;;;0.30;0.30;;;21.00;47.00;;;;;;10353275;28;20046;-55
2024/02/22 10:24:29;;;;;;;0.30;0.30;;;21.00;46.80;;;;;;10355348;28;20415;-51
2024/02/22 10:29:32;;;;;;;0.30;0.30;;;21.10;46.80;;;;;;10356897;28;20133;-53
2024/02/22 10:34:33;;;;;;;0.25;0.25;;;21.20;46.60;;;;;;10355101;28;20046;-54
2024/02/22 10:39:35;;;;;;;0.30;0.30;;;21.20;46.60;;;;;;10351313;28;20061;-53
2024/02/22 10:44:38;;;;;;;0.20;0.20;;;21.20;46.50;;;;;;10349095;28;20046;-56
2024/02/22 10:49:39;;;;;;;0.45;0.30;;;21.20;46.50;;;;;;10346058;28;20504;-55
2024/02/22 10:54:41;;;;;;;0.40;0.20;;;21.20;46.50;;;;;;10350114;28;20050;-54
2024/02/22 10:59:44;;;;;;;0.20;0.20;;;21.10;46.70;;;;;;10352110;28;20046;-53
2024/02/22 11:04:46;;;;;;;0.30;0.30;;;21.20;46.50;;;;;;10350327;28;20048;-55
2024/02/22 11:09:48;;;;;;;0.20;0.20;;;21.30;46.40;;;;;;10351695;28;20048;-55
2024/02/22 11:14:51;;;;;;;0.20;0.20;;;21.20;46.40;;;;;;10355743;28;20046;-52
2024/02/22 11:19:54;;;;;;;0.30;0.30;;;21.30;46.40;;;;;;10362789;28;20496;-55
2024/02/22 11:24:56;;;;;;;0.28;0.28;;;21.20;47.00;;;;;;10360149;28;20092;-53
2024/02/22 11:29:59;;;;;;;0.20;0.20;;;21.20;46.50;;;;;;10365958;28;20048;-51
2024/02/22 11:35:00;;;;;;;0.20;0.20;;;21.20;46.50;;;;;;10361900;28;20042;-57
2024/02/22 11:40:04;;;;;;;0.28;0.28;;;21.10;46.60;;;;;;10361896;28;20053;-53
2024/02/22 11:45:13;;;;;;;0.28;0.28;;;21.00;46.80;;;;;;10363255;28;20038;-53
2024/02/22 11:50:15;;;;;;;0.20;0.20;;;21.00;46.80;;;;;;10357314;28;20527;-58
2024/02/22 11:55:17;;;;;;;0.30;0.30;;;20.90;47.70;;;;;;10357447;28;20505;-54
2024/02/22 12:00:20;;;;;;;0.30;0.30;;;21.00;46.90;;;;;;10358472;28;20045;-52
2024/02/22 12:05:22;;;;;;;0.30;0.30;;;21.00;47.20;;;;;;10358849;28;20141;-55
2024/02/22 12:10:23;;;;;;;0.20;0.20;;;21.00;46.60;;;;;;10355267;28;20420;-56
2024/02/22 12:15:26;;;;;;;0.20;0.20;;;20.90;46.80;;;;;;10357057;28;20042;-53
2024/02/22 12:20:28;;;;;;;0.30;0.30;;;20.90;47.00;;;;;;10357021;28;20046;-55
2024/02/22 12:25:30;;;;;;;0.28;0.28;;;21.00;46.90;;;;;;10359775;28;20068;-52
2024/02/22 12:30:33;;;;;;;0.35;0.30;;;21.10;46.60;;;;;;10361930;28;20151;-54
2024/02/22 12:35:36;;;;;;;0.20;0.20;;;21.10;46.70;;;;;;10360030;28;20471;-54
2024/02/22 12:40:37;;;;;;;0.20;0.20;;;21.00;46.70;;;;;;10356159;28;20085;-53
2024/02/22 12:45:40;;;;;;;0.20;0.20;;;21.10;46.50;;;;;;10362533;28;20045;-55
2024/02/22 12:50:43;;;;;;;0.20;0.20;;;21.30;46.30;;;;;;10360956;28;20525;-55
2024/02/22 12:55:44;;;;;;;0.20;0.20;;;21.40;46.20;;;;;;10357841;28;20559;-55
2024/02/22 13:00:47;;;;;;;0.40;0.30;;;21.40;46.20;;;;;;10354985;28;20566;-56
2024/02/22 13:05:49;;;;;;;0.20;0.20;;;21.40;46.10;;;;;;10355394;28;20423;-59
2024/02/22 13:10:51;;;;;;;0.30;0.30;;;21.40;46.00;;;;;;10352218;28;20046;-56
2024/02/22 13:15:54;;;;;;;0.60;0.30;;;21.30;46.40;;;;;;10354173;28;20050;-56
2024/02/22 13:20:56;;;;;;;0.30;0.30;;;21.30;46.50;;;;;;10358963;28;20081;-58
2024/02/22 13:25:57;;;;;;;0.28;0.28;;;21.20;46.50;;;;;;10360234;28;20049;-54
2024/02/22 13:31:00;;;;;;;0.55;0.40;;;21.30;46.30;;;;;;10351976;28;20038;-56
2024/02/22 13:36:02;;;;;;;0.20;0.20;;;21.20;46.50;;;;;;10355684;28;20073;-55
2024/02/22 13:41:04;;;;;;;0.30;0.30;;;21.20;46.50;;;;;;10366562;28;20046;-53
2024/02/22 13:46:07;;;;;;;0.30;0.28;;;21.20;46.50;;;;;;10358056;28;20056;-52
2024/02/22 13:51:09;;;;;;;0.40;0.30;;;21.40;46.00;;;;;;10356150;28;20060;-55
2024/02/22 13:56:10;;;;;;;0.40;0.30;;;21.50;45.90;;;;;;10357031;28;20695;-55
2024/02/22 14:01:13;;;;;;;0.50;0.30;;;21.70;45.50;;;;;;10360241;28;20419;-55
2024/02/22 14:06:15;;;;;;;0.30;0.30;;;21.90;45.20;;;;;;10355334;28;20064;-53
2024/02/22 14:11:16;;;;;;;0.30;0.30;;;21.80;45.30;;;;;;10351435;28;20060;-55
2024/02/22 14:16:19;;;;;;;0.22;0.22;;;21.70;45.50;;;;;;10347695;28;20056;-55
2024/02/22 14:21:21;;;;;;;0.30;0.30;;;21.80;45.50;;;;;;10350656;28;20048;-54
2024/02/22 14:26:22;;;;;;;0.22;0.22;;;21.80;45.60;;;;;;10354811;28;20041;-53
2024/02/22 14:31:25;;;;;;;0.43;0.35;;;21.80;45.40;;;;;;10356261;28;20046;-56
2024/02/22 14:36:27;;;;;;;0.20;0.20;;;22.00;45.10;;;;;;10356745;28;20048;-56
2024/02/22 14:41:29;;;;;;;0.20;0.20;;;22.00;44.90;;;;;;10355974;28;20064;-56
2024/02/22 14:46:32;;;;;;;0.30;0.30;;;22.00;45.30;;;;;;10352446;28;20042;-54
2024/02/22 14:51:35;;;;;;;0.30;0.30;;;22.20;45.00;;;;;;10358312;28;20046;-57
2024/02/22 14:56:37;;;;;;;0.30;0.30;;;22.10;45.20;;;;;;10359169;28;20046;-56
2024/02/22 15:01:40;;;;;;;0.45;0.30;;;22.10;45.20;;;;;;10355030;28;20093;-54
2024/02/22 15:06:44;;;;;;;0.30;0.30;;;22.10;45.10;;;;;;10355002;28;20050;-57
2024/02/22 15:11:46;;;;;;;0.20;0.20;;;22.10;45.00;;;;;;10354821;28;20056;-59
2024/02/22 15:16:49;;;;;;;0.22;0.22;;;22.20;45.20;;;;;;10354600;28;20162;-54
2024/02/22 15:21:50;;;;;;;0.20;0.20;;;22.20;45.00;;;;;;10348222;28;20038;-54
2024/02/22 15:26:56;;;;;;;0.20;0.20;;;22.10;45.20;;;;;;10346288;28;20053;-51
2024/02/22 15:31:59;;;;;;;0.32;0.30;;;22.20;45.10;;;;;;10343416;28;20052;-55
2024/02/22 15:37:01;;;;;;;0.30;0.30;;;22.20;45.10;;;;;;10354336;28;20850;-54
2024/02/22 15:42:02;;;;;;;0.52;0.30;;;22.20;45.30;;;;;;10357203;28;20041;-56
2024/02/22 15:47:06;;;;;;;0.40;0.30;;;22.20;45.30;;;;;;10354475;28;20052;-55
2024/02/22 15:52:08;;;;;;;0.30;0.30;;;22.30;45.20;;;;;;10356061;28;20411;-56
2024/02/22 15:57:11;;;;;;;0.22;0.22;;;22.30;45.40;;;;;;10354328;28;20141;-53
2024/02/22 16:02:14;;;;;;;0.20;0.20;;;22.30;45.20;;;;;;10348919;28;20149;-58
2024/02/22 16:07:16;;;;;;;0.30;0.30;;;22.40;45.20;;;;;;10371356;28;20042;-56
2024/02/22 16:12:17;;;;;;;0.20;0.20;;;22.30;45.30;;;;;;10360969;28;20120;-55
2024/02/22 16:17:21;;;;;;;0.20;0.20;;;22.30;45.30;;;;;;10364968;28;20132;-57
2024/02/22 16:22:23;;;;;;;0.30;0.30;;;22.40;45.20;;;;;;10363288;28;20046;-53
2024/02/22 16:27:24;;;;;;;0.30;0.30;;;22.40;45.10;;;;;;10361207;28;20492;-57
2024/02/22 16:32:27;;;;;;;0.40;0.30;;;22.50;45.20;;;;;;10359479;28;20042;-55
2024/02/22 16:37:29;;;;;;;0.40;0.40;;;22.50;45.60;;;;;;10350589;28;20138;-54
2024/02/22 16:42:35;;;;;;;0.30;0.30;;;22.50;45.10;;;;;;10351247;28;20113;-56
2024/02/22 16:47:38;;;;;;;0.30;0.30;;;22.50;45.30;;;;;;10352779;28;20050;-61
2024/02/22 16:52:39;;;;;;;0.40;0.40;;;22.40;45.30;;;;;;10358779;28;20081;-53
2024/02/22 16:57:41;;;;;;;0.30;0.30;;;22.40;45.20;;;;;;10361724;28;20077;-56
2024/02/22 17:02:45;;;;;;;0.30;0.30;;;22.50;45.10;;;;;;10357809;28;20077;-59
2024/02/22 17:07:46;;;;;;;0.30;0.30;;;22.60;45.10;;;;;;10359910;28;20051;-60
2024/02/22 17:12:48;;;;;;;0.30;0.30;;;22.60;45.20;;;;;;10357963;28;20053;-57
2024/02/22 17:17:53;;;;;;;0.30;0.30;;;22.60;45.00;;;;;;10367977;28;20042;-59
2024/02/22 17:22:55;;;;;;;0.30;0.30;;;22.60;45.00;;;;;;10362202;28;20956;-58
2024/02/22 17:27:58;;;;;;;0.30;0.30;;;22.70;45.10;;;;;;10356508;28;20519;-59
2024/02/22 17:33:01;;;;;;;0.30;0.30;;;22.70;45.00;;;;;;10356513;28;20056;-60
2024/02/22 17:38:03;;;;;;;0.30;0.30;;;22.80;44.70;;;;;;10361937;28;20052;-60
2024/02/22 17:43:05;;;;;;;0.65;0.30;;;22.70;44.90;;;;;;10352689;28;20050;-58
2024/02/22 17:48:08;;;;;;;0.40;0.30;;;22.60;45.10;;;;;;10354001;28;20038;-59
2024/02/22 17:53:09;;;;;;;0.40;0.40;;;22.70;45.00;;;;;;10350394;28;20132;-59
2024/02/22 17:58:12;;;;;;;0.30;0.30;;;22.80;44.90;;;;;;10352120;28;20181;-57
2024/02/22 18:03:15;;;;;;;0.30;0.30;;;22.80;44.80;;;;;;10353752;28;20140;-58
2024/02/22 18:08:16;;;;;;;0.30;0.30;;;22.70;45.00;;;;;;10351710;28;20044;-53
2024/02/22 18:13:18;;;;;;;0.25;0.25;;;22.80;45.00;;;;;;10358537;28;20049;-55
2024/02/22 18:18:21;;;;;;;0.30;0.30;;;22.90;45.60;;;;;;10351376;28;20046;-56
2024/02/22 18:23:23;;;;;;;0.30;0.30;;;22.80;44.80;;;;;;10353808;28;20056;-51
2024/02/22 18:28:25;;;;;;;0.30;0.30;;;22.80;44.80;;;;;;10355238;28;20089;-55
2024/02/22 18:33:28;;;;;;;0.30;0.30;;;22.80;44.90;;;;;;10356906;28;20048;-53
2024/02/22 18:38:30;;;;;;;0.30;0.30;;;22.80;45.00;;;;;;10318607;28;20046;-56
2024/02/22 18:43:32;;;;;;;0.20;0.20;;;22.90;44.90;;;;;;10349057;28;20132;-53
2024/02/22 18:48:35;;;;;;;0.40;0.20;;;22.90;44.90;;;;;;10307363;28;20074;-58
2024/02/22 18:53:37;;;;;;;0.30;0.30;;;22.90;44.90;;;;;;10349168;28;20500;-54
2024/02/22 18:58:39;;;;;;;0.30;0.30;;;22.90;44.80;;;;;;10318419;28;20050;-50
2024/02/22 19:03:42;;;;;;;0.40;0.40;;;23.00;44.80;;;;;;10349138;28;20141;-54
2024/02/22 19:08:43;;;;;;;0.38;0.38;;;23.00;44.70;;;;;;10313343;28;20871;-54
2024/02/22 19:13:45;;;;;;;0.38;0.38;;;23.00;44.70;;;;;;10350911;28;20389;-57
2024/02/22 19:18:48;;;;;;;0.30;0.30;;;23.20;44.40;;;;;;10309227;28;20069;-52
2024/02/22 19:23:50;;;;;;;0.30;0.30;;;23.20;44.50;;;;;;10345227;28;20055;-58
2024/02/22 19:28:51;;;;;;;0.30;0.30;;;23.20;44.50;;;;;;10313185;28;20052;-58
2024/02/22 19:33:55;;;;;;;0.20;0.20;;;23.00;44.70;;;;;;10344232;28;20362;-54
2024/02/22 19:38:57;;;;;;;0.20;0.20;;;23.00;44.70;;;;;;10322810;28;20053;-54
2024/02/22 19:43:58;;;;;;;0.40;0.30;;;22.90;44.80;;;;;;10356865;28;20053;-54
2024/02/22 19:49:01;;;;;;;0.30;0.30;;;22.80;45.10;;;;;;10326644;28;20042;-56
2024/02/22 19:54:03;;;;;;;0.30;0.30;;;22.80;45.10;;;;;;10353013;28;20052;-58
2024/02/22 19:59:04;;;;;;;0.30;0.30;;;22.70;45.10;;;;;;10319499;28;20415;-58
2024/02/22 20:04:07;;;;;;;0.30;0.30;;;22.70;45.20;;;;;;10348501;28;20415;-54
2024/02/22 20:09:09;;;;;;;0.25;0.25;;;22.80;45.60;;;;;;10320250;28;20049;-60
2024/02/22 20:14:11;;;;;;;0.30;0.30;;;22.60;45.20;;;;;;10345925;28;20094;-58
2024/02/22 20:19:14;;;;;;;0.30;0.30;;;22.80;45.70;;;;;;10322259;28;20046;-58
2024/02/22 20:24:15;;;;;;;0.30;0.30;;;22.80;44.70;;;;;;10349420;28;20054;-58
2024/02/22 20:29:17;;;;;;;0.32;0.32;;;22.80;44.80;;;;;;10314113;28;20045;-57
2024/02/22 20:34:20;;;;;;;0.30;0.30;;;22.70;45.00;;;;;;10348547;28;20057;-53
2024/02/22 20:39:21;;;;;;;0.30;0.30;;;22.70;44.90;;;;;;10318030;28;20124;-52
2024/02/22 20:44:23;;;;;;;0.30;0.30;;;22.80;44.90;;;;;;10344998;28;20041;-57
2024/02/22 20:49:26;;;;;;;0.22;0.22;;;22.60;45.00;;;;;;10315012;28;20065;-59
2024/02/22 20:54:28;;;;;;;0.30;0.30;;;22.60;45.00;;;;;;10355010;28;20062;-53
2024/02/22 20:59:29;;;;;;;0.30;0.30;;;22.50;45.00;;;;;;10324238;28;20049;-59
2024/02/22 21:04:33;;;;;;;0.40;0.40;;;22.50;45.10;;;;;;10347237;28;20129;-54
2024/02/22 21:09:35;;;;;;;0.30;0.30;;;22.40;45.30;;;;;;10321686;28;20061;-54
2024/02/22 21:14:37;;;;;;;0.30;0.30;;;22.40;45.40;;;;;;10342595;28;20078;-53
2024/02/22 21:19:40;;;;;;;0.30;0.30;;;22.30;45.30;;;;;;10314252;28;20082;-52
2024/02/22 21:24:43;;;;;;;0.22;0.22;;;22.50;45.10;;;;;;10343401;28;20051;-53
2024/02/22 21:29:44;;;;;;;0.30;0.30;;;22.40;45.00;;;;;;10324391;28;20057;-55
2024/02/22 21:34:47;;;;;;;0.38;0.38;;;22.50;44.90;;;;;;10346162;28;20397;-54
2024/02/22 21:39:49;;;;;;;0.30;0.30;;;22.50;44.70;;;;;;10317206;28;20056;-58
2024/02/22 21:44:50;;;;;;;0.20;0.20;;;22.40;44.70;;;;;;10342251;28;20061;-58
2024/02/22 21:49:53;;;;;;;0.35;0.35;;;22.60;44.50;;;;;;10318686;28;20050;-56
2024/02/22 21:54:56;;;;;;;0.38;0.30;;;22.60;44.30;;;;;;10342500;28;20056;-57
2024/02/22 21:59:57;;;;;;;0.30;0.30;;;22.60;44.40;;;;;;10321017;28;20053;-59
2024/02/22 22:05:00;;;;;;;0.32;0.32;;;22.40;44.70;;;;;;10343232;28;20061;-58
2024/02/22 22:10:02;;;;;;;0.30;0.30;;;22.30;44.60;;;;;;10330093;28;20141;-58
2024/02/22 22:15:05;;;;;;;0.30;0.30;;;22.40;44.60;;;;;;10346242;28;20268;-59
2024/02/22 22:20:09;;;;;;;0.30;0.30;;;22.40;44.20;;;;;;10318086;28;20058;-59
2024/02/22 22:25:11;;;;;;;0.30;0.30;;;22.50;44.20;;;;;;10334608;28;20093;-59
2024/02/22 22:30:13;;;;;;;0.30;0.30;;;22.50;44.10;;;;;;10323039;28;20057;-55
2024/02/22 22:35:16;;;;;;;0.32;0.30;;;22.50;44.10;;;;;;10341883;28;20042;-55
2024/02/22 22:40:18;;;;;;;0.30;0.30;;;22.60;43.90;;;;;;10322717;28;20069;-54
2024/02/22 22:45:19;;;;;;;0.30;0.30;;;22.40;44.30;;;;;;10338518;28;20085;-55
2024/02/22 22:50:22;;;;;;;0.30;0.30;;;22.30;44.30;;;;;;10322368;28;20050;-59
2024/02/22 22:55:24;;;;;;;0.30;0.30;;;22.30;44.40;;;;;;10337618;28;20054;-53
2024/02/22 23:00:27;;;;;;;0.30;0.30;;;22.50;43.90;;;;;;10318936;28;20042;-55
2024/02/22 23:05:30;;;;;;;0.32;0.32;;;22.30;44.10;;;;;;10336051;28;20524;-57
2024/02/22 23:10:32;;;;;;;0.35;0.22;;;22.30;44.20;;;;;;10328064;28;20514;-56
2024/02/22 23:15:33;;;;;;;0.50;0.32;;;22.30;44.00;;;;;;10344025;28;20082;-55
2024/02/22 23:20:36;;;;;;;0.20;0.20;;;22.20;44.20;;;;;;10343063;28;20046;-55
2024/02/22 23:25:38;;;;;;;0.30;0.30;;;22.10;44.30;;;;;;10347936;28;20046;-54
2024/02/22 23:30:40;;;;;;;0.57;0.30;;;22.20;44.30;;;;;;10335148;28;20056;-55
2024/02/22 23:35:42;;;;;;;0.30;0.30;;;22.20;44.20;;;;;;10337693;28;20054;-55
2024/02/22 23:40:44;;;;;;;0.30;0.30;;;22.10;44.30;;;;;;10341172;28;20499;-55
2024/02/22 23:45:46;;;;;;;0.50;0.40;;;21.90;44.60;;;;;;10343197;28;20428;-53
2024/02/22 23:50:49;;;;;;;1.05;0.30;;;21.90;44.70;;;;;;10331809;28;20050;-54
2024/02/22 23:55:50;;;;;;;0.30;0.30;;;21.90;44.60;;;;;;10338541;28;20042;-56
